SBSR Informações do Aeroporto

Informações da Pista
Pista 7 Comprimento 5381 ft Largura 115 ft
Elevação 0 ft Limite 0 ft Heading 0
Pista 25 Comprimento 5381 ft Largura 115 ft
Elevação 0 ft Limite 0 ft Heading 0
Frequências do Aeroporto
Tipo AFIS Nome RDO Frequência 130.85 MHZ
Navaids do Aeroporto
Tipo NDB Nome Rio Preto Frequência 420 KHZ
Informações meteorológicas do aeroporto e NOTAM
ADDS - METARS form results

(2253 UTC 25 May 2019)
Data provider http://aviationweather.gov/metar/data/
 
METAR text: SBSR 252200Z 19002KT CAVOK 19/10 Q1018
Conditions at: SBSR (SAO JOSE PRETO , BR) observed 2200 UTC 25 May 2019
Temperature: 19.0°C (66°F)
Dewpoint: 10.0°C (50°F) [RH = 56%]
Pressure (altimeter): 30.06 inches Hg (1018.0 mb)
Winds: from the S (190 degrees) at 2 MPH (2 knots; 1.0 m/s)
Visibility: 6 or more miles (10+ km)
Ceiling: ceiling and visibility are OK
Clouds: unknown
Weather: no significant weather observed at this time